FYML

Mariental

Mariental, Namibia
METAR FYML 211500Z AUTO 07001KT //// // ////// 35/M01 Q1021
Observed Flight Rules
Apr-21 @ 15:00 UTC (41 minutes ago)
Wind
70° at 1 knots
Temperatures Readings
Current 35°C / 95°F
Dewpoint -1°C / 30°F
Humidity 10%
Altimeter 30.15" Hg
Pressure 1021 hPa
Elevation 1113
METAR FYML 211500Z AUTO 07001KT //// // ////// 35/M01 Q1021
Observed Flight Rules
Apr-21 @ 15:00 UTC
(41 minutes ago)
Wind
70° at 1 knots
Temperature Dewpoint
35°C / 95°F -1°C / 30°F
Humidity Altimeter Pressure
10% 30.15" Hg 1021 hPa